Queen City, Vermont
Current Conditions -  °F | °C
As of 2:54 PM on Wednesday 28 Jan 2015 (Local Time) from KBTV Reporting Station
Few Clouds Few Clouds  
Wind Chill:   Ceiling: Unl
Heat Index: 18°   Visibility: 10mi
Dew Point: -6°   Wind: 12mph
Humidity: 35%   Direction: 360°N
Pressure: 30.17"   Gusts: NA
Location:  44.446°N, 73.1725°W
Report Text: KBTV 281954Z 36010KT 10SM FEW120 M08/M21 A3017 RMK AO2 SLP223 ACC S-W ACSL ALQDS T10781211
Loading
Personal Weather Stations






























Interactive Weather Map New forecast layout! Learn more

10-Day Weather Forecast

Advertisements
Track Severe Weather on mobile